createdAt,value
2022-12-23T00:00:28.314Z,99160.50
2022-12-23T00:02:55.050Z,99152.06
2022-12-23T00:05:21.885Z,99153.78
2022-12-23T00:07:48.438Z,99149.53
2022-12-23T00:10:15.041Z,99144.63
2022-12-23T00:12:59.866Z,99142.09
2022-12-23T00:15:26.422Z,99144.28
2022-12-23T00:17:52.964Z,99137.41
2022-12-23T00:20:19.600Z,99122.91
2022-12-23T00:23:04.694Z,99122.31
2022-12-23T00:25:41.486Z,99116.09
2022-12-23T00:28:11.416Z,99105.34
2022-12-23T00:30:45.064Z,99113.25
2022-12-23T00:33:11.740Z,99102.00
2022-12-23T00:35:38.275Z,99093.88
2022-12-23T00:38:04.835Z,99107.09
2022-12-23T00:40:51.010Z,99103.38
2022-12-23T00:43:17.554Z,99105.00
2022-12-23T00:45:44.168Z,99085.75
2022-12-23T00:48:29.242Z,99080.50
2022-12-23T00:50:55.909Z,99082.50
2022-12-23T00:53:23.248Z,99077.56
2022-12-23T00:55:50.924Z,99074.63
2022-12-23T00:58:19.035Z,99075.59
2022-12-23T01:01:05.033Z,99078.75
2022-12-23T01:03:50.745Z,99076.72
2022-12-23T01:06:17.864Z,99071.47
2022-12-23T01:08:44.696Z,99076.13
2022-12-23T01:11:12.077Z,99077.47
2022-12-23T01:13:39.130Z,99072.53
2022-12-23T01:16:15.012Z,99069.66
2022-12-23T01:18:44.042Z,99069.97
2022-12-23T01:21:11.323Z,99067.25
2022-12-23T01:23:38.056Z,99064.63
2022-12-23T01:26:06.521Z,99059.16
2022-12-23T01:28:33.790Z,99064.44
2022-12-23T01:31:01.867Z,99052.53
2022-12-23T01:33:28.594Z,99050.03
2022-12-23T01:36:06.675Z,99059.59
2022-12-23T01:38:34.123Z,99046.84
2022-12-23T01:41:00.766Z,99047.44
2022-12-23T01:43:49.114Z,99041.41
2022-12-23T01:46:16.239Z,99047.31
2022-12-23T01:48:46.376Z,99047.84
2022-12-23T01:51:22.108Z,99046.34
2022-12-23T01:53:53.513Z,99039.63
2022-12-23T01:56:26.832Z,99041.09
2022-12-23T01:58:59.928Z,99033.97
2022-12-23T02:01:45.569Z,99034.38
2022-12-23T02:04:17.470Z,99032.91
2022-12-23T02:07:04.583Z,99030.06
2022-12-23T02:09:36.782Z,99028.38
2022-12-23T02:12:34.325Z,99037.00
2022-12-23T02:15:44.703Z,99036.06
2022-12-23T02:18:21.141Z,99036.78
2022-12-23T02:21:03.744Z,99032.81
2022-12-23T02:23:36.267Z,99035.66
2022-12-23T02:26:40.388Z,99038.25
2022-12-23T02:29:06.868Z,99035.66
2022-12-23T02:31:45.305Z,99036.06
2022-12-23T02:34:30.214Z,99035.84
2022-12-23T02:37:29.163Z,99042.16
2022-12-23T02:40:36.895Z,99025.28
2022-12-23T02:43:25.254Z,99029.88
2022-12-23T02:45:56.692Z,99026.47
2022-12-23T02:48:29.415Z,99025.16
2022-12-23T02:50:58.876Z,99015.44
2022-12-23T02:53:28.014Z,99009.38
2022-12-23T02:55:56.342Z,99014.91
2022-12-23T02:58:29.153Z,99019.63
2022-12-23T03:00:58.230Z,99020.78
2022-12-23T03:03:26.293Z,99016.19
2022-12-23T03:05:54.330Z,99007.09
2022-12-23T03:08:26.620Z,99008.78
2022-12-23T03:11:08.857Z,99006.13
2022-12-23T03:13:57.024Z,99010.22
2022-12-23T03:16:27.895Z,99004.66
2022-12-23T03:19:23.501Z,98991.38
2022-12-23T03:22:20.802Z,98998.94
2022-12-23T03:24:57.439Z,98997.25
2022-12-23T03:27:23.896Z,98997.34
2022-12-23T03:30:12.131Z,99000.09
2022-12-23T03:32:59.733Z,99000.59
2022-12-23T03:35:36.187Z,98979.09
2022-12-23T03:38:04.012Z,98980.53
2022-12-23T03:40:37.318Z,98984.84
2022-12-23T03:43:20.033Z,98987.34
2022-12-23T03:45:54.874Z,98989.66
2022-12-23T03:48:29.463Z,98994.69
2022-12-23T03:51:00.474Z,98987.09
2022-12-23T03:53:54.451Z,98990.59
2022-12-23T03:56:41.077Z,98997.31
2022-12-23T03:59:11.844Z,98986.03
2022-12-23T04:01:57.328Z,98997.53
2022-12-23T04:04:56.636Z,98989.25
2022-12-23T04:07:42.553Z,98998.25
2022-12-23T04:10:10.537Z,98996.59
2022-12-23T04:12:38.687Z,98991.88
2022-12-23T04:15:12.273Z,98994.53
2022-12-23T04:17:39.615Z,98998.97
2022-12-23T04:20:07.309Z,98992.59
2022-12-23T04:22:33.882Z,98988.16
2022-12-23T04:25:00.420Z,98997.06
2022-12-23T04:27:26.957Z,99006.91
2022-12-23T04:29:53.462Z,98997.66
2022-12-23T04:32:20.005Z,98998.34
2022-12-23T04:34:46.555Z,99006.53
2022-12-23T04:37:13.101Z,99012.53
2022-12-23T04:39:39.628Z,99000.28
2022-12-23T04:42:06.246Z,98996.69
2022-12-23T04:44:32.836Z,98995.00
2022-12-23T04:46:59.974Z,98990.78
2022-12-23T04:49:26.648Z,98992.22
2022-12-23T04:51:53.150Z,98989.84
2022-12-23T04:54:19.790Z,98990.69
2022-12-23T04:56:46.355Z,98994.78
2022-12-23T04:59:12.999Z,98991.06
2022-12-23T05:01:39.712Z,98996.22
2022-12-23T05:04:06.373Z,99006.91
2022-12-23T05:06:32.934Z,98994.69
2022-12-23T05:08:59.495Z,98990.34
2022-12-23T05:11:26.166Z,98996.34
2022-12-23T05:13:52.740Z,98990.22
2022-12-23T05:16:19.358Z,98996.00
2022-12-23T05:18:46.056Z,99002.72
2022-12-23T05:21:12.687Z,98994.78
2022-12-23T05:23:39.267Z,98998.50
2022-12-23T05:26:05.908Z,98988.88
2022-12-23T05:28:33.315Z,98998.50
2022-12-23T05:31:01.936Z,98997.41
2022-12-23T05:33:28.825Z,98992.94
2022-12-23T05:35:56.251Z,98990.78
2022-12-23T05:38:23.209Z,98996.78
2022-12-23T05:40:49.773Z,99007.63
2022-12-23T05:43:16.857Z,99011.53
2022-12-23T05:45:43.746Z,99011.44
2022-12-23T05:48:10.661Z,99010.47
2022-12-23T05:50:38.247Z,99017.53
2022-12-23T05:53:05.319Z,99018.16
2022-12-23T05:55:32.375Z,99011.91
2022-12-23T05:57:59.316Z,99015.63
2022-12-23T06:00:25.968Z,99007.59
2022-12-23T06:02:54.076Z,99014.06
2022-12-23T06:05:21.745Z,99018.75
2022-12-23T06:07:48.295Z,99019.13
2022-12-23T06:10:14.851Z,99021.16
2022-12-23T06:12:41.464Z,99019.69
2022-12-23T06:15:08.678Z,99023.53
2022-12-23T06:17:35.435Z,99027.16
2022-12-23T06:20:02.073Z,99031.34
2022-12-23T06:22:28.679Z,99037.22
2022-12-23T06:24:55.210Z,99038.22
2022-12-23T06:27:21.743Z,99039.75
2022-12-23T06:29:48.471Z,99045.66
2022-12-23T06:32:15.157Z,99038.06
2022-12-23T06:34:41.799Z,99057.50
2022-12-23T06:37:08.395Z,99053.66
2022-12-23T06:39:34.969Z,99045.88
2022-12-23T06:42:01.510Z,99045.00
2022-12-23T06:44:28.001Z,99062.66
2022-12-23T06:46:54.538Z,99058.81
2022-12-23T06:49:21.092Z,99062.66
2022-12-23T06:51:47.607Z,99061.94
2022-12-23T06:54:14.155Z,99067.97
2022-12-23T06:56:40.836Z,99062.59
2022-12-23T06:59:07.433Z,99061.38
2022-12-23T07:01:34.145Z,99067.03
2022-12-23T07:04:01.888Z,99062.84
2022-12-23T07:06:28.608Z,99063.81
2022-12-23T07:08:55.190Z,99070.19
2022-12-23T07:11:21.778Z,99062.97
2022-12-23T07:13:48.790Z,99062.97
2022-12-23T07:16:15.590Z,99071.97
2022-12-23T07:18:42.251Z,99066.56
2022-12-23T07:21:18.795Z,99066.44
2022-12-23T07:23:48.128Z,99072.81
2022-12-23T07:26:14.742Z,99072.94
2022-12-23T07:28:43.651Z,99072.34
2022-12-23T07:31:10.265Z,99080.00
2022-12-23T07:33:36.825Z,99088.16
2022-12-23T07:36:03.494Z,99088.91
2022-12-23T07:38:30.058Z,99089.50
2022-12-23T07:40:56.584Z,99091.28
2022-12-23T07:43:23.125Z,99085.41
2022-12-23T07:45:55.549Z,99094.78
2022-12-23T07:48:26.146Z,99090.69
2022-12-23T07:50:52.742Z,99092.97
2022-12-23T07:53:19.285Z,99094.16
2022-12-23T07:55:47.255Z,99092.84
2022-12-23T07:58:15.654Z,99098.00
2022-12-23T08:00:42.186Z,99102.06
2022-12-23T08:03:11.649Z,99104.50
2022-12-23T08:05:38.321Z,99091.88
2022-12-23T08:08:04.999Z,99098.50
2022-12-23T08:10:31.562Z,99097.75
2022-12-23T08:13:00.754Z,99102.56
2022-12-23T08:15:27.360Z,99098.00
2022-12-23T08:17:56.154Z,99101.09
2022-12-23T08:20:22.718Z,99105.66
2022-12-23T08:22:49.295Z,99106.00
2022-12-23T08:25:15.895Z,99107.16
2022-12-23T08:27:42.466Z,99096.72
2022-12-23T08:30:09.747Z,99106.06
2022-12-23T08:32:36.331Z,99093.97
2022-12-23T08:35:02.891Z,99102.47
2022-12-23T08:37:29.672Z,99093.81
2022-12-23T08:39:56.197Z,99106.06
2022-12-23T08:42:22.725Z,99113.75
2022-12-23T08:44:49.273Z,99110.16
2022-12-23T08:47:15.804Z,99122.38
2022-12-23T08:49:42.404Z,99116.34
2022-12-23T08:52:08.949Z,99118.03
2022-12-23T08:54:35.504Z,99125.84
2022-12-23T08:57:02.044Z,99123.72
2022-12-23T08:59:28.698Z,99135.03
2022-12-23T09:01:55.422Z,99138.16
2022-12-23T09:04:22.139Z,99127.03
2022-12-23T09:06:48.682Z,99122.34
2022-12-23T09:09:16.171Z,99134.41
2022-12-23T09:11:42.759Z,99127.69
2022-12-23T09:14:11.024Z,99133.09
2022-12-23T09:16:37.877Z,99132.00
2022-12-23T09:19:04.863Z,99122.84
2022-12-23T09:21:31.673Z,99138.59
2022-12-23T09:23:58.320Z,99132.22
2022-12-23T09:26:28.490Z,99140.75
2022-12-23T09:28:55.668Z,99132.66
2022-12-23T09:31:23.589Z,99123.78
2022-12-23T09:33:52.508Z,99126.31
2022-12-23T09:36:20.003Z,99140.16
2022-12-23T09:38:46.843Z,99149.00
2022-12-23T09:41:19.253Z,99138.03
2022-12-23T09:44:00.611Z,99137.09
2022-12-23T09:46:32.126Z,99140.53
2022-12-23T09:49:05.266Z,99143.97
2022-12-23T09:51:33.481Z,99132.72
2022-12-23T09:54:16.568Z,99140.78
2022-12-23T09:56:57.894Z,99152.78
2022-12-23T09:59:55.236Z,99145.50
2022-12-23T10:03:02.813Z,99151.69
2022-12-23T10:05:56.238Z,99150.34
2022-12-23T10:08:32.546Z,99148.16
2022-12-23T10:11:14.015Z,99145.69
2022-12-23T10:14:03.029Z,99156.16
2022-12-23T10:16:35.140Z,99156.16
2022-12-23T10:19:07.132Z,99160.63
2022-12-23T10:21:46.873Z,99170.09
2022-12-23T10:24:34.920Z,99163.91
2022-12-23T10:27:04.881Z,99167.84
2022-12-23T10:29:33.681Z,99163.84
2022-12-23T10:32:21.696Z,99164.03
2022-12-23T10:35:06.499Z,99159.16
2022-12-23T10:37:52.712Z,99151.22
2022-12-23T10:40:22.267Z,99157.03
2022-12-23T10:43:10.964Z,99163.72
2022-12-23T10:45:40.459Z,99148.66
2022-12-23T10:48:44.265Z,99152.72
2022-12-23T10:51:10.743Z,99139.09
2022-12-23T10:53:39.576Z,99147.63
2022-12-23T10:56:07.434Z,99132.97
2022-12-23T10:58:38.384Z,99142.34
2022-12-23T11:01:18.696Z,99141.09
2022-12-23T11:04:08.617Z,99127.16
2022-12-23T11:06:40.992Z,99139.69
2022-12-23T11:09:16.576Z,99147.63
2022-12-23T11:11:56.854Z,99135.22
2022-12-23T11:14:53.766Z,99149.56
2022-12-23T11:17:30.002Z,99150.84
2022-12-23T11:20:07.401Z,99163.13
2022-12-23T11:22:34.040Z,99158.25
2022-12-23T11:25:27.670Z,99155.38
2022-12-23T11:27:58.641Z,99144.09
2022-12-23T11:30:25.449Z,99142.06
2022-12-23T11:32:52.533Z,99150.59
2022-12-23T11:35:35.533Z,99148.91
2022-12-23T11:38:04.111Z,99159.69
2022-12-23T11:40:37.405Z,99171.09
2022-12-23T11:43:14.452Z,99162.19
2022-12-23T11:45:41.161Z,99168.63
2022-12-23T11:48:27.275Z,99159.56
2022-12-23T11:51:02.220Z,99162.03
2022-12-23T11:53:31.536Z,99173.03
2022-12-23T11:56:00.741Z,99173.03
2022-12-23T11:58:29.817Z,99174.06
2022-12-23T12:00:59.598Z,99169.88
2022-12-23T12:03:34.377Z,99177.97
2022-12-23T12:06:04.508Z,99182.78
2022-12-23T12:08:36.933Z,99180.66
2022-12-23T12:11:19.725Z,99183.63
2022-12-23T12:13:49.982Z,99178.03
2022-12-23T12:16:33.513Z,99177.38
2022-12-23T12:19:10.705Z,99167.56
2022-12-23T12:21:38.972Z,99164.78
2022-12-23T12:24:19.861Z,99166.06
2022-12-23T12:26:51.586Z,99162.69
2022-12-23T12:29:51.717Z,99147.78
2022-12-23T12:32:38.530Z,99148.88
2022-12-23T12:35:16.725Z,99156.28
2022-12-23T12:37:49.923Z,99158.63
2022-12-23T12:40:36.204Z,99152.50
2022-12-23T12:43:30.201Z,99160.56
2022-12-23T12:46:18.453Z,99157.75
2022-12-23T12:48:51.768Z,99170.97
2022-12-23T12:51:26.092Z,99163.31
2022-12-23T12:54:05.173Z,99164.28
2022-12-23T12:56:43.727Z,99165.38
2022-12-23T12:59:17.127Z,99162.31
2022-12-23T13:02:05.405Z,99159.69
2022-12-23T13:04:53.788Z,99155.69
2022-12-23T13:07:50.825Z,99163.44
2022-12-23T13:10:43.812Z,99155.91
2022-12-23T13:13:40.802Z,99153.28
2022-12-23T13:16:17.281Z,99160.34
2022-12-23T13:18:58.741Z,99153.47
2022-12-23T13:21:38.193Z,99156.84
2022-12-23T13:24:12.804Z,99156.81
2022-12-23T13:26:59.360Z,99147.88
2022-12-23T13:29:44.207Z,99144.59
2022-12-23T13:32:44.867Z,99147.44
2022-12-23T13:35:32.167Z,99146.72
2022-12-23T13:38:01.397Z,99152.09
2022-12-23T13:40:33.914Z,99148.94
2022-12-23T13:43:16.050Z,99146.84
2022-12-23T13:45:43.838Z,99148.22
2022-12-23T13:48:25.196Z,99140.13
2022-12-23T13:51:04.232Z,99148.06
2022-12-23T13:53:49.596Z,99142.41
2022-12-23T13:56:44.191Z,99141.38
2022-12-23T13:59:12.686Z,99142.94
2022-12-23T14:01:42.334Z,99132.84
2022-12-23T14:04:35.346Z,99127.13
2022-12-23T14:07:23.093Z,99129.41
2022-12-23T14:10:19.982Z,99128.28
2022-12-23T14:12:48.420Z,99123.09
2022-12-23T14:15:45.638Z,99122.16
2022-12-23T14:18:36.707Z,99123.38
2022-12-23T14:21:32.826Z,99119.91
2022-12-23T14:24:05.060Z,99119.09
2022-12-23T14:26:46.171Z,99126.41
2022-12-23T14:29:33.916Z,99122.97
2022-12-23T14:32:00.468Z,99117.09
2022-12-23T14:34:30.934Z,99120.84
2022-12-23T14:37:23.687Z,99122.28
2022-12-23T14:39:51.621Z,99123.69
2022-12-23T14:42:50.379Z,99123.56
2022-12-23T14:45:41.838Z,99124.28
2022-12-23T14:48:33.307Z,99112.97
2022-12-23T14:51:08.768Z,99112.16
2022-12-23T14:53:56.957Z,99103.63
2022-12-23T14:56:40.814Z,99104.72
2022-12-23T14:59:24.040Z,99108.53
2022-12-23T15:02:04.110Z,99108.53
2022-12-23T15:04:50.840Z,99102.47
2022-12-23T15:07:26.092Z,99109.91
2022-12-23T15:10:01.125Z,99113.25
2022-12-23T15:12:40.623Z,99108.47
2022-12-23T15:15:13.953Z,99120.03
2022-12-23T15:17:40.826Z,99116.44
2022-12-23T15:20:11.095Z,99115.44
2022-12-23T15:22:38.523Z,99114.09
2022-12-23T15:25:18.376Z,99131.41
2022-12-23T15:27:45.271Z,99138.47
2022-12-23T15:30:13.618Z,99131.63
2022-12-23T15:32:45.716Z,99125.22
2022-12-23T15:35:22.331Z,99133.13
2022-12-23T15:37:50.608Z,99130.06
2022-12-23T15:40:23.198Z,99116.03
2022-12-23T15:42:52.973Z,99103.91
2022-12-23T15:45:28.676Z,99106.53
2022-12-23T15:47:55.465Z,99113.28
2022-12-23T15:50:22.536Z,99110.47
2022-12-23T15:52:50.665Z,99099.03
2022-12-23T15:55:29.961Z,99097.88
2022-12-23T15:57:57.617Z,99094.03
2022-12-23T16:00:28.793Z,99097.38
2022-12-23T16:03:00.940Z,99093.56
2022-12-23T16:05:37.725Z,99099.00
2022-12-23T16:08:28.594Z,99092.00
2022-12-23T16:11:11.673Z,99094.38
2022-12-23T16:13:41.637Z,99089.38
2022-12-23T16:16:31.340Z,99100.94
2022-12-23T16:18:57.990Z,99091.88
2022-12-23T16:21:29.546Z,99097.53
2022-12-23T16:23:57.248Z,99097.34
2022-12-23T16:26:23.917Z,99088.41
2022-12-23T16:28:54.342Z,99086.25
2022-12-23T16:31:21.679Z,99085.25
2022-12-23T16:33:49.952Z,99086.09
2022-12-23T16:36:25.241Z,99094.19
2022-12-23T16:39:00.664Z,99088.19
2022-12-23T16:41:27.209Z,99081.72
2022-12-23T16:43:53.835Z,99084.88
2022-12-23T16:46:23.192Z,99082.81
2022-12-23T16:48:55.846Z,99080.75
2022-12-23T16:51:23.576Z,99087.69
2022-12-23T16:53:52.475Z,99081.38
2022-12-23T16:56:21.396Z,99082.47
2022-12-23T16:58:48.344Z,99074.81
2022-12-23T17:01:23.722Z,99073.50
2022-12-23T17:03:50.901Z,99077.41
2022-12-23T17:06:18.917Z,99068.06
2022-12-23T17:08:45.553Z,99078.97
2022-12-23T17:11:36.753Z,99082.38
2022-12-23T17:14:07.866Z,99067.94
2022-12-23T17:16:37.071Z,99058.13
2022-12-23T17:19:05.517Z,99053.94
2022-12-23T17:21:34.983Z,99052.41
2022-12-23T17:24:09.155Z,99055.03
2022-12-23T17:26:35.873Z,99052.41
2022-12-23T17:29:04.006Z,99057.31
2022-12-23T17:31:32.121Z,99047.00
2022-12-23T17:33:58.928Z,99038.41
2022-12-23T17:36:25.492Z,99022.00
2022-12-23T17:38:52.057Z,99017.56
2022-12-23T17:41:28.120Z,99024.72
2022-12-23T17:43:55.119Z,99013.44
2022-12-23T17:46:22.128Z,99014.91
2022-12-23T17:48:48.833Z,99013.91
2022-12-23T17:51:20.876Z,98999.16
2022-12-23T17:53:53.133Z,98996.03
2022-12-23T17:56:24.657Z,99011.78
2022-12-23T17:58:51.292Z,99016.66
2022-12-23T18:01:32.273Z,99005.13
2022-12-23T18:03:59.782Z,99002.25
2022-12-23T18:06:28.025Z,99001.31
2022-12-23T18:08:56.938Z,99002.25
2022-12-23T18:11:34.465Z,98993.50
2022-12-23T18:14:01.812Z,99001.88
2022-12-23T18:16:28.593Z,99002.94
2022-12-23T18:18:55.403Z,99017.41
2022-12-23T18:21:28.084Z,99021.78
2022-12-23T18:23:57.785Z,99006.94
2022-12-23T18:26:25.014Z,99004.84
2022-12-23T18:28:54.169Z,99001.41
2022-12-23T18:31:22.857Z,99008.50
2022-12-23T18:33:50.133Z,99000.06
2022-12-23T18:36:22.763Z,99006.38
2022-12-23T18:38:49.539Z,99004.22
2022-12-23T18:41:16.151Z,98997.72
2022-12-23T18:43:42.878Z,99006.09
2022-12-23T18:46:09.543Z,99012.97
2022-12-23T18:48:36.228Z,99005.00
2022-12-23T18:51:02.829Z,99008.78
2022-12-23T18:53:29.501Z,98996.69
2022-12-23T18:55:56.176Z,99001.00
2022-12-23T18:58:23.384Z,99000.53
2022-12-23T19:00:52.659Z,99004.47
2022-12-23T19:03:25.066Z,99006.03
2022-12-23T19:05:52.852Z,99009.03
2022-12-23T19:08:26.387Z,99003.56
2022-12-23T19:10:54.456Z,99000.06
2022-12-23T19:13:21.640Z,99002.22
2022-12-23T19:15:48.394Z,99002.34
2022-12-23T19:18:18.292Z,98990.94
2022-12-23T19:20:46.288Z,98990.03
2022-12-23T19:23:13.269Z,98973.34
2022-12-23T19:25:49.199Z,98962.78
2022-12-23T19:28:21.744Z,98955.72
2022-12-23T19:30:48.750Z,98960.63
2022-12-23T19:33:15.725Z,98946.34
2022-12-23T19:35:42.893Z,98943.38
2022-12-23T19:38:10.068Z,98940.31
2022-12-23T19:40:36.640Z,98933.44
2022-12-23T19:43:03.550Z,98927.22
2022-12-23T19:45:30.146Z,98915.28
2022-12-23T19:47:56.705Z,98915.06
2022-12-23T19:50:23.314Z,98901.28
2022-12-23T19:52:52.660Z,98892.63
2022-12-23T19:55:19.233Z,98894.75
2022-12-23T19:57:45.773Z,98887.78
2022-12-23T20:00:12.827Z,98886.06
2022-12-23T20:02:39.477Z,98883.41
2022-12-23T20:05:06.361Z,98866.19
2022-12-23T20:07:35.422Z,98869.88
2022-12-23T20:10:02.235Z,98860.75
2022-12-23T20:12:28.747Z,98846.91
2022-12-23T20:14:55.474Z,98843.47
2022-12-23T20:17:22.052Z,98850.94
2022-12-23T20:19:48.600Z,98844.19
2022-12-23T20:22:15.181Z,98831.84
2022-12-23T20:24:41.757Z,98842.75
2022-12-23T20:27:11.704Z,98838.94
2022-12-23T20:29:39.259Z,98841.19
2022-12-23T20:32:06.011Z,98840.47
2022-12-23T20:34:38.714Z,98843.47
2022-12-23T20:37:06.530Z,98837.72
2022-12-23T20:39:33.088Z,98834.13
2022-12-23T20:41:59.664Z,98831.16
2022-12-23T20:44:35.659Z,98840.59
2022-12-23T20:47:03.594Z,98834.25
2022-12-23T20:49:30.783Z,98834.38
2022-12-23T20:51:57.484Z,98827.06
2022-12-23T20:54:31.697Z,98823.72
2022-12-23T20:56:59.675Z,98832.34
2022-12-23T20:59:26.327Z,98836.88
2022-12-23T21:01:53.017Z,98829.13
2022-12-23T21:04:20.532Z,98843.22
2022-12-23T21:06:47.144Z,98851.38
2022-12-23T21:09:15.194Z,98854.84
2022-12-23T21:11:45.635Z,98858.19
2022-12-23T21:14:13.614Z,98859.84
2022-12-23T21:16:41.195Z,98849.41
2022-12-23T21:19:12.922Z,98848.94
2022-12-23T21:21:39.442Z,98831.16
2022-12-23T21:24:06.497Z,98837.47
2022-12-23T21:26:34.637Z,98820.44
2022-12-23T21:29:04.202Z,98820.88
2022-12-23T21:31:32.217Z,98808.72
2022-12-23T21:33:59.078Z,98819.84
2022-12-23T21:36:28.185Z,98799.47
2022-12-23T21:38:54.830Z,98815.53
2022-12-23T21:41:25.237Z,98803.78
2022-12-23T21:43:52.143Z,98810.44
2022-12-23T21:46:20.826Z,98818.78
2022-12-23T21:48:49.068Z,98812.22
2022-12-23T21:51:23.581Z,98803.09
2022-12-23T21:53:52.364Z,98802.28
2022-12-23T21:56:24.211Z,98798.81
2022-12-23T21:58:54.680Z,98793.28
2022-12-23T22:01:21.463Z,98804.63
2022-12-23T22:03:49.679Z,98803.47
2022-12-23T22:06:19.089Z,98798.91
2022-12-23T22:08:46.039Z,98792.34
2022-12-23T22:11:27.208Z,98796.91
2022-12-23T22:13:55.966Z,98787.56
2022-12-23T22:16:25.011Z,98783.22
2022-12-23T22:18:52.439Z,98796.91
2022-12-23T22:21:21.851Z,98808.25
2022-12-23T22:23:48.840Z,98809.81
2022-12-23T22:26:24.208Z,98808.16
2022-12-23T22:28:52.879Z,98805.88
2022-12-23T22:31:45.522Z,98801.81
2022-12-23T22:34:18.584Z,98816.53
2022-12-23T22:36:45.245Z,98816.78
2022-12-23T22:39:20.693Z,98823.22
2022-12-23T22:41:49.292Z,98826.13
2022-12-23T22:44:16.381Z,98826.28
2022-12-23T22:46:43.655Z,98836.50
2022-12-23T22:49:12.496Z,98845.41
2022-12-23T22:51:41.130Z,98859.34
2022-12-23T22:54:08.411Z,98857.78
2022-12-23T22:56:35.025Z,98844.38
2022-12-23T22:59:01.573Z,98852.94
2022-12-23T23:01:31.355Z,98848.94
2022-12-23T23:04:00.410Z,98855.19
2022-12-23T23:06:37.673Z,98879.25
2022-12-23T23:09:10.061Z,98899.81
2022-12-23T23:11:36.650Z,98901.84
2022-12-23T23:14:03.732Z,98917.38
2022-12-23T23:16:30.540Z,98886.88
2022-12-23T23:18:58.828Z,98895.22
2022-12-23T23:21:26.097Z,98905.19
2022-12-23T23:23:52.989Z,98903.44
2022-12-23T23:26:20.133Z,98908.31
2022-12-23T23:28:47.367Z,98894.00
2022-12-23T23:34:00.694Z,98884.38
2022-12-23T23:36:27.385Z,98897.59
2022-12-23T23:38:53.988Z,98895.31
2022-12-23T23:41:23.239Z,98890.44
2022-12-23T23:43:51.282Z,98894.19
2022-12-23T23:46:18.011Z,98881.94
2022-12-23T23:48:44.679Z,98917.53
2022-12-23T23:51:12.557Z,98889.34
2022-12-23T23:53:39.287Z,98892.69
2022-12-23T23:56:07.667Z,98881.56
2022-12-23T23:58:35.383Z,98893.50
